Airport View

Enter AWOS ICAO identifier for current METAR.

ex. KFNL

KLHM 200255Z AUTO 00000KT 10SM SCT120 16/12 A2976 RMK AO1

20 Mar 2019 03:14

Frequency: 124.25

Phone: 916-645-0698

Other Area AWOS: KAUN - KBAB - KMCC - KMYV

TAF KBAB 200300Z 2003/2109 17009KT 9999 SCT050 BKN100 QNH2970INS TEMPO 2005/2010 17012G18KT -SHRA VCTS SCT025 OVC030CB BECMG 2011/2012 16015G25KT 9000 -SHRA OVC020 610555 QNH2974INS BECMG 2016/2017 23012G18KT 9000 -SHRA BKN030 610555 QNH2983INS BECMG 2100/2101 26009KT 9000 -SHRA BKN030 610605 QNH2986INS TX25/2022Z TN09/2012Z